Harrison, Wisconsin
Current Conditions -  °F | °C
As of 8:15 AM on Saturday 22 Nov 2014 (Local Time) from KRRL Reporting Station
Haze Haze  
Wind Chill: 24°   Ceiling: 300
Heat Index: 32°   Visibility: 1.2mi
Dew Point: 32°   Wind: 9mph
Humidity: 99%   Direction: 230°SW
Pressure: 29.81"   Gusts: NA
Location:  45.3595°N, 89.45°W
Report Text: KRRL 221415Z AUTO 23008KT 1 1/4SM BR OVC003 00/00 A2981 RMK AO2 T00001002
Loading
Personal Weather Stations






























Interactive Weather Map New forecast layout! Learn more

10-Day Weather Forecast

Advertisements
Track Severe Weather on mobile